sensor_id;sensor_type;location;lat;lon;timestamp;P1;durP1;ratioP1;P2;durP2;ratioP2
64186;SDS011;50491;39.484;-8.540;2023-08-20T00:01:15;2.63;;;1.10;;
64186;SDS011;50491;39.484;-8.540;2023-08-20T00:03:38;1.65;;;1.30;;
64186;SDS011;50491;39.484;-8.540;2023-08-20T00:05:40;2.25;;;1.10;;
64186;SDS011;50491;39.484;-8.540;2023-08-20T00:07:41;1.23;;;1.13;;
64186;SDS011;50491;39.484;-8.540;2023-08-20T00:10:01;0.60;;;0.60;;
64186;SDS011;50491;39.484;-8.540;2023-08-20T00:12:04;0.88;;;0.88;;
64186;SDS011;50491;39.484;-8.540;2023-08-20T00:14:05;1.65;;;0.80;;
64186;SDS011;50491;39.484;-8.540;2023-08-20T00:16:24;1.35;;;0.88;;
64186;SDS011;50491;39.484;-8.540;2023-08-20T00:18:44;2.30;;;0.60;;
64186;SDS011;50491;39.484;-8.540;2023-08-20T00:20:45;0.95;;;0.60;;
64186;SDS011;50491;39.484;-8.540;2023-08-20T00:22:46;0.65;;;0.63;;
64186;SDS011;50491;39.484;-8.540;2023-08-20T00:24:48;1.70;;;0.90;;
64186;SDS011;50491;39.484;-8.540;2023-08-20T00:26:49;1.38;;;0.57;;
64186;SDS011;50491;39.484;-8.540;2023-08-20T00:28:50;1.15;;;0.43;;
64186;SDS011;50491;39.484;-8.540;2023-08-20T00:30:51;3.20;;;1.00;;
64186;SDS011;50491;39.484;-8.540;2023-08-20T00:33:10;1.38;;;1.20;;
64186;SDS011;50491;39.484;-8.540;2023-08-20T00:35:10;0.47;;;0.47;;
64186;SDS011;50491;39.484;-8.540;2023-08-20T00:37:11;1.00;;;0.60;;
64186;SDS011;50491;39.484;-8.540;2023-08-20T00:39:30;0.65;;;0.63;;
64186;SDS011;50491;39.484;-8.540;2023-08-20T00:41:32;0.88;;;0.60;;
64186;SDS011;50491;39.484;-8.540;2023-08-20T00:43:33;1.27;;;0.60;;
64186;SDS011;50491;39.484;-8.540;2023-08-20T00:45:52;1.05;;;0.60;;
64186;SDS011;50491;39.484;-8.540;2023-08-20T00:48:11;0.65;;;0.60;;
64186;SDS011;50491;39.484;-8.540;2023-08-20T00:50:12;0.80;;;0.75;;
64186;SDS011;50491;39.484;-8.540;2023-08-20T00:52:32;0.65;;;0.65;;
64186;SDS011;50491;39.484;-8.540;2023-08-20T00:54:53;0.82;;;0.60;;
64186;SDS011;50491;39.484;-8.540;2023-08-20T00:56:54;2.85;;;1.08;;
64186;SDS011;50491;39.484;-8.540;2023-08-20T00:59:13;1.02;;;0.65;;
64186;SDS011;50491;39.484;-8.540;2023-08-20T01:01:14;0.63;;;0.60;;
64186;SDS011;50491;39.484;-8.540;2023-08-20T01:03:33;1.33;;;0.98;;
64186;SDS011;50491;39.484;-8.540;2023-08-20T01:05:36;0.93;;;0.50;;
64186;SDS011;50491;39.484;-8.540;2023-08-20T01:12:41;1.38;;;0.65;;
64186;SDS011;50491;39.484;-8.540;2023-08-20T01:20:16;0.85;;;0.55;;
64186;SDS011;50491;39.484;-8.540;2023-08-20T01:25:37;0.60;;;0.60;;
64186;SDS011;50491;39.484;-8.540;2023-08-20T01:33:19;0.40;;;0.40;;
64186;SDS011;50491;39.484;-8.540;2023-08-20T01:35:19;1.05;;;0.40;;
64186;SDS011;50491;39.484;-8.540;2023-08-20T01:39:58;2.47;;;0.80;;
64186;SDS011;50491;39.484;-8.540;2023-08-20T01:41:59;1.08;;;0.80;;
64186;SDS011;50491;39.484;-8.540;2023-08-20T01:44:00;0.52;;;0.52;;
64186;SDS011;50491;39.484;-8.540;2023-08-20T01:46:01;0.77;;;0.77;;
64186;SDS011;50491;39.484;-8.540;2023-08-20T01:48:20;1.02;;;0.80;;
64186;SDS011;50491;39.484;-8.540;2023-08-20T01:57:38;2.80;;;0.90;;
64186;SDS011;50491;39.484;-8.540;2023-08-20T02:07:58;1.50;;;0.90;;
64186;SDS011;50491;39.484;-8.540;2023-08-20T02:10:17;1.27;;;0.75;;
64186;SDS011;50491;39.484;-8.540;2023-08-20T02:12:18;0.60;;;0.60;;
64186;SDS011;50491;39.484;-8.540;2023-08-20T02:14:19;0.70;;;0.70;;
64186;SDS011;50491;39.484;-8.540;2023-08-20T02:16:38;2.28;;;0.80;;
64186;SDS011;50491;39.484;-8.540;2023-08-20T02:18:39;1.48;;;0.77;;
64186;SDS011;50491;39.484;-8.540;2023-08-20T02:20:41;1.20;;;0.80;;
64186;SDS011;50491;39.484;-8.540;2023-08-20T02:23:02;1.20;;;1.10;;
64186;SDS011;50491;39.484;-8.540;2023-08-20T02:25:21;0.85;;;0.80;;
64186;SDS011;50491;39.484;-8.540;2023-08-20T02:32:55;0.57;;;0.50;;
64186;SDS011;50491;39.484;-8.540;2023-08-20T02:34:55;0.73;;;0.68;;
64186;SDS011;50491;39.484;-8.540;2023-08-20T02:37:00;0.85;;;0.85;;
64186;SDS011;50491;39.484;-8.540;2023-08-20T02:39:00;2.08;;;0.60;;
64186;SDS011;50491;39.484;-8.540;2023-08-20T02:41:01;0.55;;;0.55;;
64186;SDS011;50491;39.484;-8.540;2023-08-20T02:43:05;0.73;;;0.73;;
64186;SDS011;50491;39.484;-8.540;2023-08-20T02:45:07;1.10;;;0.80;;
64186;SDS011;50491;39.484;-8.540;2023-08-20T02:47:08;1.38;;;0.60;;
64186;SDS011;50491;39.484;-8.540;2023-08-20T02:54:25;3.65;;;0.80;;
64186;SDS011;50491;39.484;-8.540;2023-08-20T02:56:44;1.30;;;0.70;;
64186;SDS011;50491;39.484;-8.540;2023-08-20T02:59:03;0.50;;;0.50;;
64186;SDS011;50491;39.484;-8.540;2023-08-20T03:01:04;2.42;;;0.70;;
64186;SDS011;50491;39.484;-8.540;2023-08-20T03:03:05;1.08;;;0.82;;
64186;SDS011;50491;39.484;-8.540;2023-08-20T03:08:05;2.35;;;0.75;;
64186;SDS011;50491;39.484;-8.540;2023-08-20T03:10:07;1.90;;;0.82;;
64186;SDS011;50491;39.484;-8.540;2023-08-20T03:12:08;2.45;;;0.80;;
64186;SDS011;50491;39.484;-8.540;2023-08-20T03:14:08;1.65;;;0.80;;
64186;SDS011;50491;39.484;-8.540;2023-08-20T03:16:09;1.15;;;1.05;;
64186;SDS011;50491;39.484;-8.540;2023-08-20T03:18:10;3.53;;;0.93;;
64186;SDS011;50491;39.484;-8.540;2023-08-20T03:20:10;1.08;;;0.90;;
64186;SDS011;50491;39.484;-8.540;2023-08-20T03:22:11;1.35;;;1.23;;
64186;SDS011;50491;39.484;-8.540;2023-08-20T03:24:12;1.20;;;1.10;;
64186;SDS011;50491;39.484;-8.540;2023-08-20T03:26:12;0.88;;;0.88;;
64186;SDS011;50491;39.484;-8.540;2023-08-20T03:28:19;3.15;;;1.52;;
64186;SDS011;50491;39.484;-8.540;2023-08-20T03:30:21;2.15;;;1.20;;
64186;SDS011;50491;39.484;-8.540;2023-08-20T03:32:22;2.53;;;1.52;;
64186;SDS011;50491;39.484;-8.540;2023-08-20T03:34:23;1.45;;;1.13;;
64186;SDS011;50491;39.484;-8.540;2023-08-20T03:36:24;2.45;;;2.10;;
64186;SDS011;50491;39.484;-8.540;2023-08-20T03:38:31;2.15;;;1.42;;
64186;SDS011;50491;39.484;-8.540;2023-08-20T03:40:32;2.72;;;1.50;;
64186;SDS011;50491;39.484;-8.540;2023-08-20T03:42:32;3.03;;;1.50;;
64186;SDS011;50491;39.484;-8.540;2023-08-20T03:44:51;1.73;;;1.63;;
64186;SDS011;50491;39.484;-8.540;2023-08-20T03:47:10;1.45;;;0.98;;
64186;SDS011;50491;39.484;-8.540;2023-08-20T03:49:11;2.10;;;1.30;;
64186;SDS011;50491;39.484;-8.540;2023-08-20T03:51:12;1.63;;;1.52;;
64186;SDS011;50491;39.484;-8.540;2023-08-20T03:53:13;1.92;;;1.15;;
64186;SDS011;50491;39.484;-8.540;2023-08-20T03:55:14;1.73;;;1.08;;
64186;SDS011;50491;39.484;-8.540;2023-08-20T03:57:33;1.40;;;1.17;;
64186;SDS011;50491;39.484;-8.540;2023-08-20T03:59:34;2.63;;;1.50;;
64186;SDS011;50491;39.484;-8.540;2023-08-20T04:01:53;1.58;;;1.10;;
64186;SDS011;50491;39.484;-8.540;2023-08-20T04:04:19;1.45;;;1.25;;
64186;SDS011;50491;39.484;-8.540;2023-08-20T04:06:21;1.48;;;1.20;;
64186;SDS011;50491;39.484;-8.540;2023-08-20T04:08:23;2.45;;;1.60;;
64186;SDS011;50491;39.484;-8.540;2023-08-20T04:13:39;1.67;;;1.50;;
64186;SDS011;50491;39.484;-8.540;2023-08-20T04:15:43;2.30;;;1.70;;
64186;SDS011;50491;39.484;-8.540;2023-08-20T04:17:44;2.35;;;1.70;;
64186;SDS011;50491;39.484;-8.540;2023-08-20T04:23:19;1.88;;;1.38;;
64186;SDS011;50491;39.484;-8.540;2023-08-20T04:25:20;2.13;;;1.33;;
64186;SDS011;50491;39.484;-8.540;2023-08-20T04:27:39;1.73;;;1.48;;
64186;SDS011;50491;39.484;-8.540;2023-08-20T04:34:37;1.30;;;1.20;;
64186;SDS011;50491;39.484;-8.540;2023-08-20T04:39:21;1.58;;;1.20;;
64186;SDS011;50491;39.484;-8.540;2023-08-20T04:41:40;1.75;;;1.40;;
64186;SDS011;50491;39.484;-8.540;2023-08-20T04:44:00;1.08;;;0.98;;
64186;SDS011;50491;39.484;-8.540;2023-08-20T04:46:01;0.95;;;0.90;;
64186;SDS011;50491;39.484;-8.540;2023-08-20T04:48:03;1.35;;;1.25;;
64186;SDS011;50491;39.484;-8.540;2023-08-20T04:55:57;0.85;;;0.82;;
64186;SDS011;50491;39.484;-8.540;2023-08-20T05:01:09;0.80;;;0.80;;
64186;SDS011;50491;39.484;-8.540;2023-08-20T05:03:10;1.15;;;0.90;;
64186;SDS011;50491;39.484;-8.540;2023-08-20T05:05:11;0.70;;;0.70;;
64186;SDS011;50491;39.484;-8.540;2023-08-20T05:07:13;0.75;;;0.70;;
64186;SDS011;50491;39.484;-8.540;2023-08-20T05:09:14;0.80;;;0.80;;
64186;SDS011;50491;39.484;-8.540;2023-08-20T05:11:34;1.10;;;0.80;;
64186;SDS011;50491;39.484;-8.540;2023-08-20T05:13:39;1.27;;;0.52;;
64186;SDS011;50491;39.484;-8.540;2023-08-20T05:15:59;0.65;;;0.57;;
64186;SDS011;50491;39.484;-8.540;2023-08-20T05:18:18;0.70;;;0.65;;
64186;SDS011;50491;39.484;-8.540;2023-08-20T05:20:36;1.05;;;0.68;;
64186;SDS011;50491;39.484;-8.540;2023-08-20T05:22:37;1.77;;;0.90;;
64186;SDS011;50491;39.484;-8.540;2023-08-20T05:24:38;0.77;;;0.65;;
64186;SDS011;50491;39.484;-8.540;2023-08-20T05:26:39;0.60;;;0.60;;
64186;SDS011;50491;39.484;-8.540;2023-08-20T05:36:16;0.70;;;0.70;;
64186;SDS011;50491;39.484;-8.540;2023-08-20T05:38:19;0.80;;;0.80;;
64186;SDS011;50491;39.484;-8.540;2023-08-20T05:40:21;0.80;;;0.80;;
64186;SDS011;50491;39.484;-8.540;2023-08-20T05:42:41;1.30;;;0.98;;
64186;SDS011;50491;39.484;-8.540;2023-08-20T05:44:42;0.80;;;0.80;;
64186;SDS011;50491;39.484;-8.540;2023-08-20T05:46:46;0.80;;;0.80;;
64186;SDS011;50491;39.484;-8.540;2023-08-20T05:48:49;0.73;;;0.73;;
64186;SDS011;50491;39.484;-8.540;2023-08-20T05:50:50;0.75;;;0.75;;
64186;SDS011;50491;39.484;-8.540;2023-08-20T05:52:51;0.93;;;0.88;;
64186;SDS011;50491;39.484;-8.540;2023-08-20T05:55:11;1.13;;;0.98;;
64186;SDS011;50491;39.484;-8.540;2023-08-20T05:57:12;1.13;;;0.80;;
64186;SDS011;50491;39.484;-8.540;2023-08-20T05:59:12;1.00;;;0.80;;
64186;SDS011;50491;39.484;-8.540;2023-08-20T06:01:13;6.10;;;1.05;;
64186;SDS011;50491;39.484;-8.540;2023-08-20T06:03:14;1.10;;;1.00;;
64186;SDS011;50491;39.484;-8.540;2023-08-20T06:05:16;0.98;;;0.80;;
64186;SDS011;50491;39.484;-8.540;2023-08-20T06:07:16;1.15;;;1.05;;
64186;SDS011;50491;39.484;-8.540;2023-08-20T06:12:14;1.10;;;1.00;;
64186;SDS011;50491;39.484;-8.540;2023-08-20T06:14:14;2.03;;;1.30;;
